sensor_id;sensor_type;location;lat;lon;timestamp;pressure;altitude;pressure_sealevel;temperature;humidity
63582;BME280;49727;51.078;17.066;2023-06-22T00:14:26;100376.56;;;23.15;64.21
63582;BME280;49727;51.078;17.066;2023-06-22T00:29:27;100386.16;;;23.06;64.51
63582;BME280;49727;51.078;17.066;2023-06-22T00:44:27;100409.59;;;22.90;64.90
63582;BME280;49727;51.078;17.066;2023-06-22T00:59:27;100425.38;;;22.76;65.08
63582;BME280;49727;51.078;17.066;2023-06-22T01:14:36;100426.66;;;22.56;65.33
63582;BME280;49727;51.078;17.066;2023-06-22T01:29:38;100432.38;;;22.43;66.03
63582;BME280;49727;51.078;17.066;2023-06-22T01:44:40;100439.84;;;22.24;66.64
63582;BME280;49727;51.078;17.066;2023-06-22T01:59:53;100437.38;;;21.93;67.11
63582;BME280;49727;51.078;17.066;2023-06-22T02:14:58;100439.44;;;21.62;67.92
63582;BME280;49727;51.078;17.066;2023-06-22T02:30:00;100437.06;;;21.30;68.70
63582;BME280;49727;51.078;17.066;2023-06-22T02:45:01;100455.50;;;20.98;69.32
63582;BME280;49727;51.078;17.066;2023-06-22T03:00:05;100451.25;;;20.78;70.38
63582;BME280;49727;51.078;17.066;2023-06-22T03:15:17;100460.19;;;20.79;70.69
63582;BME280;49727;51.078;17.066;2023-06-22T03:30:20;100474.94;;;20.83;71.32
63582;BME280;49727;51.078;17.066;2023-06-22T03:45:20;100499.59;;;21.05;71.54
63582;BME280;49727;51.078;17.066;2023-06-22T04:00:20;100506.44;;;21.32;71.45
63582;BME280;49727;51.078;17.066;2023-06-22T04:15:21;100510.75;;;21.63;71.23
63582;BME280;49727;51.078;17.066;2023-06-22T04:30:21;100525.44;;;22.03;70.75
63582;BME280;49727;51.078;17.066;2023-06-22T04:45:22;100528.09;;;22.38;70.11
63582;BME280;49727;51.078;17.066;2023-06-22T05:00:22;100550.44;;;22.69;69.61
63582;BME280;49727;51.078;17.066;2023-06-22T05:15:23;100547.88;;;23.08;69.03
63582;BME280;49727;51.078;17.066;2023-06-22T05:30:26;100539.06;;;23.47;68.07
63582;BME280;49727;51.078;17.066;2023-06-22T05:45:27;100537.19;;;24.04;66.62
63582;BME280;49727;51.078;17.066;2023-06-22T06:00:27;100546.75;;;24.06;64.27
63582;BME280;49727;51.078;17.066;2023-06-22T06:15:28;100553.16;;;24.61;62.55
63582;BME280;49727;51.078;17.066;2023-06-22T06:30:28;100574.44;;;25.19;60.37
63582;BME280;49727;51.078;17.066;2023-06-22T06:45:29;100575.69;;;25.71;57.98
63582;BME280;49727;51.078;17.066;2023-06-22T07:00:31;100573.41;;;26.38;56.73
63582;BME280;49727;51.078;17.066;2023-06-22T07:15:31;100598.56;;;27.40;54.04
63582;BME280;49727;51.078;17.066;2023-06-22T07:30:32;100606.91;;;28.96;51.28
63582;BME280;49727;51.078;17.066;2023-06-22T07:45:33;100605.25;;;29.75;48.04
63582;BME280;49727;51.078;17.066;2023-06-22T08:00:35;100588.66;;;31.20;45.12
63582;BME280;49727;51.078;17.066;2023-06-22T08:15:35;100577.72;;;31.81;42.66
63582;BME280;49727;51.078;17.066;2023-06-22T08:30:35;100570.53;;;32.27;41.11
63582;BME280;49727;51.078;17.066;2023-06-22T08:45:36;100544.47;;;32.83;39.47
63582;BME280;49727;51.078;17.066;2023-06-22T09:00:36;100541.38;;;33.53;38.05
63582;BME280;49727;51.078;17.066;2023-06-22T09:15:37;100540.16;;;33.36;37.79
63582;BME280;49727;51.078;17.066;2023-06-22T09:30:37;100544.94;;;34.25;36.34
63582;BME280;49727;51.078;17.066;2023-06-22T09:45:38;100549.09;;;33.65;36.63
63582;BME280;49727;51.078;17.066;2023-06-22T10:00:38;100523.69;;;35.04;34.36
63582;BME280;49727;51.078;17.066;2023-06-22T10:15:39;100531.19;;;36.37;31.63
63582;BME280;49727;51.078;17.066;2023-06-22T10:30:42;100509.34;;;36.57;30.77
63582;BME280;49727;51.078;17.066;2023-06-22T10:45:43;100482.13;;;36.08;30.75
63582;BME280;49727;51.078;17.066;2023-06-22T11:00:44;100478.72;;;36.32;30.08
63582;BME280;49727;51.078;17.066;2023-06-22T11:15:44;100471.38;;;36.28;29.29
63582;BME280;49727;51.078;17.066;2023-06-22T11:30:44;100460.69;;;35.57;29.57
63582;BME280;49727;51.078;17.066;2023-06-22T11:45:45;100451.88;;;36.79;27.68
63582;BME280;49727;51.078;17.066;2023-06-22T12:00:45;100437.81;;;36.63;27.07
63582;BME280;49727;51.078;17.066;2023-06-22T12:15:45;100417.94;;;36.73;26.92
63582;BME280;49727;51.078;17.066;2023-06-22T12:30:46;100398.16;;;36.07;25.45
63582;BME280;49727;51.078;17.066;2023-06-22T12:45:46;100382.47;;;36.12;25.22
63582;BME280;49727;51.078;17.066;2023-06-22T13:00:46;100370.47;;;36.20;25.90
63582;BME280;49727;51.078;17.066;2023-06-22T13:15:47;100363.50;;;36.14;25.60
63582;BME280;49727;51.078;17.066;2023-06-22T13:30:47;100359.84;;;36.22;26.17
63582;BME280;49727;51.078;17.066;2023-06-22T13:45:47;100347.94;;;35.79;26.72
63582;BME280;49727;51.078;17.066;2023-06-22T14:00:48;100338.31;;;35.25;27.08
63582;BME280;49727;51.078;17.066;2023-06-22T14:15:49;100337.47;;;34.95;28.58
63582;BME280;49727;51.078;17.066;2023-06-22T14:30:51;100296.66;;;34.74;29.00
63582;BME280;49727;51.078;17.066;2023-06-22T14:45:52;100296.34;;;34.02;29.18
63582;BME280;49727;51.078;17.066;2023-06-22T15:00:52;100291.44;;;33.64;29.45
63582;BME280;49727;51.078;17.066;2023-06-22T15:15:53;100273.81;;;33.25;30.16
63582;BME280;49727;51.078;17.066;2023-06-22T15:30:53;100265.94;;;32.69;31.01
63582;BME280;49727;51.078;17.066;2023-06-22T15:45:53;100257.53;;;32.34;31.18
63582;BME280;49727;51.078;17.066;2023-06-22T16:00:54;100241.25;;;32.01;31.54
63582;BME280;49727;51.078;17.066;2023-06-22T16:15:54;100215.63;;;31.78;32.08
63582;BME280;49727;51.078;17.066;2023-06-22T16:30:55;100194.84;;;31.35;32.96
63582;BME280;49727;51.078;17.066;2023-06-22T16:45:55;100183.69;;;31.04;33.85
63582;BME280;49727;51.078;17.066;2023-06-22T17:00:55;100182.16;;;30.56;34.00
63582;BME280;49727;51.078;17.066;2023-06-22T17:15:59;100149.94;;;30.15;35.04
63582;BME280;49727;51.078;17.066;2023-06-22T17:31:09;100139.97;;;29.72;35.91
63582;BME280;49727;51.078;17.066;2023-06-22T17:46:10;100138.22;;;29.24;36.70
63582;BME280;49727;51.078;17.066;2023-06-22T18:01:13;100099.06;;;28.80;37.58
63582;BME280;49727;51.078;17.066;2023-06-22T18:16:13;100097.22;;;28.27;38.72
63582;BME280;49727;51.078;17.066;2023-06-22T18:31:14;100084.84;;;27.76;39.96
63582;BME280;49727;51.078;17.066;2023-06-22T18:46:39;100074.91;;;27.11;40.61
63582;BME280;49727;51.078;17.066;2023-06-22T19:01:40;100068.34;;;26.57;40.94
63582;BME280;49727;51.078;17.066;2023-06-22T19:16:41;100080.53;;;26.05;41.50
63582;BME280;49727;51.078;17.066;2023-06-22T19:31:42;100063.94;;;25.49;42.25
63582;BME280;49727;51.078;17.066;2023-06-22T19:46:43;100043.44;;;25.00;43.41
63582;BME280;49727;51.078;17.066;2023-06-22T20:01:45;100024.81;;;24.61;43.90
63582;BME280;49727;51.078;17.066;2023-06-22T20:16:46;100080.16;;;24.24;44.78
63582;BME280;49727;51.078;17.066;2023-06-22T20:47:03;100067.03;;;24.11;45.39
63582;BME280;49727;51.078;17.066;2023-06-22T21:02:03;100033.50;;;23.95;45.42
63582;BME280;49727;51.078;17.066;2023-06-22T21:17:04;100019.16;;;23.72;45.84
63582;BME280;49727;51.078;17.066;2023-06-22T21:32:05;100002.72;;;23.52;46.31
63582;BME280;49727;51.078;17.066;2023-06-22T21:47:05;99953.09;;;23.34;46.43
63582;BME280;49727;51.078;17.066;2023-06-22T22:02:06;99865.50;;;23.17;46.51
63582;BME280;49727;51.078;17.066;2023-06-22T22:17:07;99878.09;;;22.95;46.77
63582;BME280;49727;51.078;17.066;2023-06-22T22:32:09;99877.34;;;22.73;47.10
63582;BME280;49727;51.078;17.066;2023-06-22T22:47:09;99873.47;;;22.63;47.04
63582;BME280;49727;51.078;17.066;2023-06-22T23:02:09;99871.28;;;22.60;46.90
63582;BME280;49727;51.078;17.066;2023-06-22T23:17:10;99828.38;;;22.57;46.81
63582;BME280;49727;51.078;17.066;2023-06-22T23:32:10;99793.31;;;22.51;46.56
63582;BME280;49727;51.078;17.066;2023-06-22T23:47:11;99797.28;;;22.43;46.79
